sensor_id;sensor_type;location;lat;lon;timestamp;P1;durP1;ratioP1;P2;durP2;ratioP2
20348;SDS011;10332;50.208;18.988;2022-10-15T00:01:29;41.20;;;27.42;;
20348;SDS011;10332;50.208;18.988;2022-10-15T00:03:56;39.42;;;25.50;;
20348;SDS011;10332;50.208;18.988;2022-10-15T00:06:31;37.20;;;25.80;;
20348;SDS011;10332;50.208;18.988;2022-10-15T00:08:59;37.58;;;25.05;;
20348;SDS011;10332;50.208;18.988;2022-10-15T00:11:27;41.00;;;27.58;;
20348;SDS011;10332;50.208;18.988;2022-10-15T00:13:56;36.40;;;23.42;;
20348;SDS011;10332;50.208;18.988;2022-10-15T00:16:26;42.70;;;27.95;;
20348;SDS011;10332;50.208;18.988;2022-10-15T00:18:55;33.15;;;22.70;;
20348;SDS011;10332;50.208;18.988;2022-10-15T00:21:25;45.67;;;29.42;;
20348;SDS011;10332;50.208;18.988;2022-10-15T00:23:53;45.20;;;30.42;;
20348;SDS011;10332;50.208;18.988;2022-10-15T00:26:23;44.95;;;28.63;;
20348;SDS011;10332;50.208;18.988;2022-10-15T00:28:53;45.78;;;30.60;;
20348;SDS011;10332;50.208;18.988;2022-10-15T00:31:24;44.55;;;29.70;;
20348;SDS011;10332;50.208;18.988;2022-10-15T00:33:54;45.50;;;28.63;;
20348;SDS011;10332;50.208;18.988;2022-10-15T00:36:26;47.85;;;31.15;;
20348;SDS011;10332;50.208;18.988;2022-10-15T00:38:58;46.25;;;29.90;;
20348;SDS011;10332;50.208;18.988;2022-10-15T00:41:28;45.63;;;29.05;;
20348;SDS011;10332;50.208;18.988;2022-10-15T00:44:00;48.25;;;31.75;;
20348;SDS011;10332;50.208;18.988;2022-10-15T00:46:48;47.05;;;30.83;;
20348;SDS011;10332;50.208;18.988;2022-10-15T00:49:42;50.45;;;32.30;;
20348;SDS011;10332;50.208;18.988;2022-10-15T00:52:28;47.38;;;31.20;;
20348;SDS011;10332;50.208;18.988;2022-10-15T00:55:19;44.95;;;31.25;;
20348;SDS011;10332;50.208;18.988;2022-10-15T00:58:04;53.03;;;31.00;;
20348;SDS011;10332;50.208;18.988;2022-10-15T01:00:42;48.08;;;31.58;;
20348;SDS011;10332;50.208;18.988;2022-10-15T01:03:09;43.65;;;28.70;;
20348;SDS011;10332;50.208;18.988;2022-10-15T01:05:38;46.58;;;29.25;;
20348;SDS011;10332;50.208;18.988;2022-10-15T01:08:09;57.20;;;35.00;;
20348;SDS011;10332;50.208;18.988;2022-10-15T01:10:47;50.35;;;34.03;;
20348;SDS011;10332;50.208;18.988;2022-10-15T01:13:36;47.60;;;31.20;;
20348;SDS011;10332;50.208;18.988;2022-10-15T01:19:31;47.45;;;30.52;;
20348;SDS011;10332;50.208;18.988;2022-10-15T01:31:09;50.75;;;31.92;;
20348;SDS011;10332;50.208;18.988;2022-10-15T01:34:26;50.10;;;29.60;;
20348;SDS011;10332;50.208;18.988;2022-10-15T01:37:18;50.03;;;32.03;;
20348;SDS011;10332;50.208;18.988;2022-10-15T01:40:20;48.20;;;30.02;;
20348;SDS011;10332;50.208;18.988;2022-10-15T01:43:00;46.33;;;30.35;;
20348;SDS011;10332;50.208;18.988;2022-10-15T01:45:33;40.20;;;26.50;;
20348;SDS011;10332;50.208;18.988;2022-10-15T01:48:10;42.70;;;28.17;;
20348;SDS011;10332;50.208;18.988;2022-10-15T01:50:39;47.78;;;30.25;;
20348;SDS011;10332;50.208;18.988;2022-10-15T01:53:14;47.25;;;30.17;;
20348;SDS011;10332;50.208;18.988;2022-10-15T01:55:56;46.05;;;30.25;;
20348;SDS011;10332;50.208;18.988;2022-10-15T01:58:30;49.42;;;31.05;;
20348;SDS011;10332;50.208;18.988;2022-10-15T02:01:00;43.47;;;28.65;;
20348;SDS011;10332;50.208;18.988;2022-10-15T02:03:28;44.90;;;29.52;;
20348;SDS011;10332;50.208;18.988;2022-10-15T02:05:58;41.83;;;28.17;;
20348;SDS011;10332;50.208;18.988;2022-10-15T02:08:43;46.08;;;29.77;;
20348;SDS011;10332;50.208;18.988;2022-10-15T02:11:25;46.38;;;29.98;;
20348;SDS011;10332;50.208;18.988;2022-10-15T02:14:01;44.35;;;29.13;;
20348;SDS011;10332;50.208;18.988;2022-10-15T02:16:42;46.90;;;31.30;;
20348;SDS011;10332;50.208;18.988;2022-10-15T02:19:21;44.00;;;30.40;;
20348;SDS011;10332;50.208;18.988;2022-10-15T02:22:31;49.97;;;32.40;;
20348;SDS011;10332;50.208;18.988;2022-10-15T02:25:08;47.10;;;30.52;;
20348;SDS011;10332;50.208;18.988;2022-10-15T02:27:44;46.47;;;29.25;;
20348;SDS011;10332;50.208;18.988;2022-10-15T02:30:16;47.40;;;30.98;;
20348;SDS011;10332;50.208;18.988;2022-10-15T02:32:46;49.72;;;31.27;;
20348;SDS011;10332;50.208;18.988;2022-10-15T02:35:20;51.60;;;32.17;;
20348;SDS011;10332;50.208;18.988;2022-10-15T02:37:50;53.00;;;32.95;;
20348;SDS011;10332;50.208;18.988;2022-10-15T02:40:24;43.40;;;28.45;;
20348;SDS011;10332;50.208;18.988;2022-10-15T02:42:54;45.35;;;30.65;;
20348;SDS011;10332;50.208;18.988;2022-10-15T02:45:22;38.67;;;26.92;;
20348;SDS011;10332;50.208;18.988;2022-10-15T02:47:49;48.97;;;31.30;;
20348;SDS011;10332;50.208;18.988;2022-10-15T02:50:16;55.25;;;33.78;;
20348;SDS011;10332;50.208;18.988;2022-10-15T02:52:44;50.97;;;32.60;;
20348;SDS011;10332;50.208;18.988;2022-10-15T02:55:11;52.92;;;34.13;;
20348;SDS011;10332;50.208;18.988;2022-10-15T02:57:39;53.17;;;32.70;;
20348;SDS011;10332;50.208;18.988;2022-10-15T03:00:06;50.03;;;32.28;;
20348;SDS011;10332;50.208;18.988;2022-10-15T03:02:34;53.60;;;34.60;;
20348;SDS011;10332;50.208;18.988;2022-10-15T03:05:02;49.20;;;31.27;;
20348;SDS011;10332;50.208;18.988;2022-10-15T03:07:29;42.55;;;28.88;;
20348;SDS011;10332;50.208;18.988;2022-10-15T03:09:57;48.78;;;32.42;;
20348;SDS011;10332;50.208;18.988;2022-10-15T03:12:24;56.88;;;35.08;;
20348;SDS011;10332;50.208;18.988;2022-10-15T03:14:52;56.65;;;36.08;;
20348;SDS011;10332;50.208;18.988;2022-10-15T03:17:19;61.72;;;38.47;;
20348;SDS011;10332;50.208;18.988;2022-10-15T03:19:47;55.80;;;35.75;;
20348;SDS011;10332;50.208;18.988;2022-10-15T03:22:15;60.38;;;37.65;;
20348;SDS011;10332;50.208;18.988;2022-10-15T03:24:42;62.35;;;40.47;;
20348;SDS011;10332;50.208;18.988;2022-10-15T03:27:09;67.43;;;43.03;;
20348;SDS011;10332;50.208;18.988;2022-10-15T03:29:37;69.47;;;43.95;;
20348;SDS011;10332;50.208;18.988;2022-10-15T03:32:04;63.80;;;41.50;;
20348;SDS011;10332;50.208;18.988;2022-10-15T03:34:32;71.40;;;46.35;;
20348;SDS011;10332;50.208;18.988;2022-10-15T03:36:59;66.47;;;44.63;;
20348;SDS011;10332;50.208;18.988;2022-10-15T03:39:26;69.45;;;42.70;;
20348;SDS011;10332;50.208;18.988;2022-10-15T03:41:54;64.47;;;43.58;;
20348;SDS011;10332;50.208;18.988;2022-10-15T03:44:21;68.82;;;43.78;;
20348;SDS011;10332;50.208;18.988;2022-10-15T03:46:48;63.00;;;41.40;;
20348;SDS011;10332;50.208;18.988;2022-10-15T03:49:15;56.80;;;37.03;;
20348;SDS011;10332;50.208;18.988;2022-10-15T03:51:43;54.42;;;35.85;;
20348;SDS011;10332;50.208;18.988;2022-10-15T03:54:10;53.20;;;34.13;;
20348;SDS011;10332;50.208;18.988;2022-10-15T03:56:37;59.28;;;38.35;;
20348;SDS011;10332;50.208;18.988;2022-10-15T03:59:05;59.75;;;38.05;;
20348;SDS011;10332;50.208;18.988;2022-10-15T04:01:32;57.33;;;36.60;;
20348;SDS011;10332;50.208;18.988;2022-10-15T04:03:59;51.92;;;36.45;;
20348;SDS011;10332;50.208;18.988;2022-10-15T04:06:27;51.95;;;34.22;;
20348;SDS011;10332;50.208;18.988;2022-10-15T04:08:54;60.95;;;38.15;;
20348;SDS011;10332;50.208;18.988;2022-10-15T04:11:22;58.45;;;36.63;;
20348;SDS011;10332;50.208;18.988;2022-10-15T04:13:49;57.78;;;37.05;;
20348;SDS011;10332;50.208;18.988;2022-10-15T04:16:16;56.00;;;35.90;;
20348;SDS011;10332;50.208;18.988;2022-10-15T04:18:44;49.80;;;33.72;;
20348;SDS011;10332;50.208;18.988;2022-10-15T04:21:11;54.30;;;34.22;;
20348;SDS011;10332;50.208;18.988;2022-10-15T04:23:38;50.45;;;32.50;;
20348;SDS011;10332;50.208;18.988;2022-10-15T04:26:06;51.42;;;33.05;;
20348;SDS011;10332;50.208;18.988;2022-10-15T04:28:33;52.55;;;32.55;;
20348;SDS011;10332;50.208;18.988;2022-10-15T04:31:00;51.28;;;33.42;;
20348;SDS011;10332;50.208;18.988;2022-10-15T04:33:28;45.20;;;29.92;;
20348;SDS011;10332;50.208;18.988;2022-10-15T04:38:32;49.42;;;32.75;;
20348;SDS011;10332;50.208;18.988;2022-10-15T04:41:07;46.78;;;28.92;;
20348;SDS011;10332;50.208;18.988;2022-10-15T04:43:38;46.45;;;29.98;;
20348;SDS011;10332;50.208;18.988;2022-10-15T04:46:06;50.15;;;31.15;;
20348;SDS011;10332;50.208;18.988;2022-10-15T04:48:35;47.47;;;30.27;;
20348;SDS011;10332;50.208;18.988;2022-10-15T04:51:13;49.13;;;30.55;;
20348;SDS011;10332;50.208;18.988;2022-10-15T04:53:43;41.92;;;26.88;;
20348;SDS011;10332;50.208;18.988;2022-10-15T04:56:15;41.80;;;27.23;;
20348;SDS011;10332;50.208;18.988;2022-10-15T04:58:45;43.92;;;27.80;;
20348;SDS011;10332;50.208;18.988;2022-10-15T05:01:16;41.65;;;27.55;;
20348;SDS011;10332;50.208;18.988;2022-10-15T05:03:46;40.63;;;26.80;;
20348;SDS011;10332;50.208;18.988;2022-10-15T05:06:18;42.38;;;27.73;;
20348;SDS011;10332;50.208;18.988;2022-10-15T05:08:48;42.83;;;28.23;;
20348;SDS011;10332;50.208;18.988;2022-10-15T05:11:17;43.45;;;28.35;;
20348;SDS011;10332;50.208;18.988;2022-10-15T05:13:48;43.65;;;28.35;;
20348;SDS011;10332;50.208;18.988;2022-10-15T05:16:18;46.20;;;30.60;;
20348;SDS011;10332;50.208;18.988;2022-10-15T05:18:49;43.90;;;28.83;;
20348;SDS011;10332;50.208;18.988;2022-10-15T05:21:21;44.63;;;30.60;;
20348;SDS011;10332;50.208;18.988;2022-10-15T05:23:48;46.50;;;29.25;;
20348;SDS011;10332;50.208;18.988;2022-10-15T05:26:17;41.17;;;27.08;;
20348;SDS011;10332;50.208;18.988;2022-10-15T05:28:49;39.83;;;26.83;;
20348;SDS011;10332;50.208;18.988;2022-10-15T05:31:18;37.50;;;25.50;;
20348;SDS011;10332;50.208;18.988;2022-10-15T05:33:48;41.75;;;27.02;;
20348;SDS011;10332;50.208;18.988;2022-10-15T05:36:19;37.78;;;25.15;;
20348;SDS011;10332;50.208;18.988;2022-10-15T05:39:01;38.83;;;24.67;;
20348;SDS011;10332;50.208;18.988;2022-10-15T05:41:32;35.20;;;24.17;;
20348;SDS011;10332;50.208;18.988;2022-10-15T05:43:59;40.08;;;27.08;;
20348;SDS011;10332;50.208;18.988;2022-10-15T05:46:27;37.67;;;25.95;;
20348;SDS011;10332;50.208;18.988;2022-10-15T05:48:55;41.97;;;26.98;;
20348;SDS011;10332;50.208;18.988;2022-10-15T05:51:24;39.65;;;25.90;;
20348;SDS011;10332;50.208;18.988;2022-10-15T05:53:53;38.28;;;25.65;;
20348;SDS011;10332;50.208;18.988;2022-10-15T05:56:23;39.30;;;26.13;;
20348;SDS011;10332;50.208;18.988;2022-10-15T05:58:51;39.22;;;27.80;;
20348;SDS011;10332;50.208;18.988;2022-10-15T06:01:19;39.35;;;25.75;;
20348;SDS011;10332;50.208;18.988;2022-10-15T06:03:46;37.97;;;26.00;;
20348;SDS011;10332;50.208;18.988;2022-10-15T06:06:18;41.03;;;27.15;;
20348;SDS011;10332;50.208;18.988;2022-10-15T06:08:49;38.20;;;26.83;;
20348;SDS011;10332;50.208;18.988;2022-10-15T06:11:17;38.05;;;26.90;;
20348;SDS011;10332;50.208;18.988;2022-10-15T06:13:45;41.55;;;28.10;;
20348;SDS011;10332;50.208;18.988;2022-10-15T06:16:14;37.60;;;26.20;;
20348;SDS011;10332;50.208;18.988;2022-10-15T06:18:50;38.92;;;26.70;;
20348;SDS011;10332;50.208;18.988;2022-10-15T06:21:19;36.88;;;25.70;;
20348;SDS011;10332;50.208;18.988;2022-10-15T06:23:47;31.98;;;24.67;;
20348;SDS011;10332;50.208;18.988;2022-10-15T06:26:14;38.17;;;25.55;;
20348;SDS011;10332;50.208;18.988;2022-10-15T06:28:42;31.55;;;22.88;;
20348;SDS011;10332;50.208;18.988;2022-10-15T06:31:09;34.42;;;24.95;;
20348;SDS011;10332;50.208;18.988;2022-10-15T06:33:37;32.05;;;23.13;;
20348;SDS011;10332;50.208;18.988;2022-10-15T06:36:06;36.03;;;24.60;;
20348;SDS011;10332;50.208;18.988;2022-10-15T06:38:36;33.53;;;23.13;;
20348;SDS011;10332;50.208;18.988;2022-10-15T06:41:05;33.60;;;23.38;;
20348;SDS011;10332;50.208;18.988;2022-10-15T06:43:34;31.02;;;23.42;;
20348;SDS011;10332;50.208;18.988;2022-10-15T06:46:02;32.13;;;23.42;;
20348;SDS011;10332;50.208;18.988;2022-10-15T06:48:31;34.03;;;22.45;;
20348;SDS011;10332;50.208;18.988;2022-10-15T06:51:02;33.30;;;23.75;;
20348;SDS011;10332;50.208;18.988;2022-10-15T06:53:30;31.23;;;22.27;;
20348;SDS011;10332;50.208;18.988;2022-10-15T06:55:58;34.85;;;23.95;;
20348;SDS011;10332;50.208;18.988;2022-10-15T06:58:29;34.75;;;24.38;;
20348;SDS011;10332;50.208;18.988;2022-10-15T07:01:01;31.17;;;22.58;;
20348;SDS011;10332;50.208;18.988;2022-10-15T07:03:31;33.15;;;24.30;;
20348;SDS011;10332;50.208;18.988;2022-10-15T07:06:02;34.33;;;24.83;;
20348;SDS011;10332;50.208;18.988;2022-10-15T07:08:32;36.10;;;24.98;;
20348;SDS011;10332;50.208;18.988;2022-10-15T07:11:02;33.10;;;24.27;;
20348;SDS011;10332;50.208;18.988;2022-10-15T07:13:32;31.85;;;23.40;;
20348;SDS011;10332;50.208;18.988;2022-10-15T07:16:03;31.83;;;22.40;;
20348;SDS011;10332;50.208;18.988;2022-10-15T07:18:33;36.60;;;25.17;;
20348;SDS011;10332;50.208;18.988;2022-10-15T07:21:04;38.67;;;26.25;;
20348;SDS011;10332;50.208;18.988;2022-10-15T07:23:39;34.30;;;24.05;;
20348;SDS011;10332;50.208;18.988;2022-10-15T07:26:09;32.15;;;23.30;;
20348;SDS011;10332;50.208;18.988;2022-10-15T07:28:37;30.95;;;23.30;;
20348;SDS011;10332;50.208;18.988;2022-10-15T07:31:05;33.42;;;23.73;;
20348;SDS011;10332;50.208;18.988;2022-10-15T07:33:34;32.85;;;23.60;;
20348;SDS011;10332;50.208;18.988;2022-10-15T07:36:02;34.92;;;25.15;;
20348;SDS011;10332;50.208;18.988;2022-10-15T07:38:33;31.15;;;23.75;;
20348;SDS011;10332;50.208;18.988;2022-10-15T07:41:02;32.90;;;23.48;;
20348;SDS011;10332;50.208;18.988;2022-10-15T07:43:30;30.15;;;22.15;;
20348;SDS011;10332;50.208;18.988;2022-10-15T07:46:00;25.77;;;20.10;;
20348;SDS011;10332;50.208;18.988;2022-10-15T07:48:29;34.83;;;23.83;;
20348;SDS011;10332;50.208;18.988;2022-10-15T07:50:58;32.13;;;22.38;;
20348;SDS011;10332;50.208;18.988;2022-10-15T07:53:30;27.23;;;20.55;;
20348;SDS011;10332;50.208;18.988;2022-10-15T07:56:05;25.90;;;19.90;;
20348;SDS011;10332;50.208;18.988;2022-10-15T07:58:36;28.58;;;21.85;;
20348;SDS011;10332;50.208;18.988;2022-10-15T08:01:04;30.00;;;21.42;;
20348;SDS011;10332;50.208;18.988;2022-10-15T08:03:35;24.05;;;19.73;;
20348;SDS011;10332;50.208;18.988;2022-10-15T08:06:04;26.85;;;19.73;;
20348;SDS011;10332;50.208;18.988;2022-10-15T08:08:33;27.13;;;21.15;;
20348;SDS011;10332;50.208;18.988;2022-10-15T08:11:09;28.73;;;20.58;;
20348;SDS011;10332;50.208;18.988;2022-10-15T08:13:40;27.35;;;19.48;;
20348;SDS011;10332;50.208;18.988;2022-10-15T08:16:09;26.13;;;19.45;;
20348;SDS011;10332;50.208;18.988;2022-10-15T08:18:39;26.15;;;17.92;;
20348;SDS011;10332;50.208;18.988;2022-10-15T08:21:07;27.17;;;20.05;;
20348;SDS011;10332;50.208;18.988;2022-10-15T08:23:36;22.83;;;18.05;;
20348;SDS011;10332;50.208;18.988;2022-10-15T08:26:03;23.92;;;18.00;;
20348;SDS011;10332;50.208;18.988;2022-10-15T08:28:32;25.50;;;18.52;;
20348;SDS011;10332;50.208;18.988;2022-10-15T08:31:01;23.88;;;18.25;;
20348;SDS011;10332;50.208;18.988;2022-10-15T08:33:34;23.92;;;17.42;;
20348;SDS011;10332;50.208;18.988;2022-10-15T08:36:04;20.05;;;16.02;;
20348;SDS011;10332;50.208;18.988;2022-10-15T08:38:33;18.35;;;14.43;;
20348;SDS011;10332;50.208;18.988;2022-10-15T08:41:01;21.48;;;15.75;;
20348;SDS011;10332;50.208;18.988;2022-10-15T08:43:40;21.45;;;14.93;;
20348;SDS011;10332;50.208;18.988;2022-10-15T08:46:13;20.10;;;13.88;;
20348;SDS011;10332;50.208;18.988;2022-10-15T08:48:52;18.40;;;13.52;;
20348;SDS011;10332;50.208;18.988;2022-10-15T08:51:24;16.30;;;12.73;;
20348;SDS011;10332;50.208;18.988;2022-10-15T08:54:19;17.35;;;13.07;;
20348;SDS011;10332;50.208;18.988;2022-10-15T08:56:47;16.75;;;13.40;;
20348;SDS011;10332;50.208;18.988;2022-10-15T08:59:36;15.60;;;11.02;;
20348;SDS011;10332;50.208;18.988;2022-10-15T09:02:20;16.25;;;11.55;;
20348;SDS011;10332;50.208;18.988;2022-10-15T09:14:25;15.40;;;11.10;;
20348;SDS011;10332;50.208;18.988;2022-10-15T09:17:00;11.98;;;10.25;;
20348;SDS011;10332;50.208;18.988;2022-10-15T09:19:50;12.68;;;9.75;;
20348;SDS011;10332;50.208;18.988;2022-10-15T09:22:25;13.30;;;9.70;;
20348;SDS011;10332;50.208;18.988;2022-10-15T09:24:57;14.10;;;9.98;;
20348;SDS011;10332;50.208;18.988;2022-10-15T09:27:43;12.98;;;9.88;;
20348;SDS011;10332;50.208;18.988;2022-10-15T09:33:24;18.42;;;14.15;;
20348;SDS011;10332;50.208;18.988;2022-10-15T09:36:12;10.50;;;8.50;;
20348;SDS011;10332;50.208;18.988;2022-10-15T09:41:58;13.43;;;9.15;;
20348;SDS011;10332;50.208;18.988;2022-10-15T09:44:49;10.52;;;8.95;;
20348;SDS011;10332;50.208;18.988;2022-10-15T09:49:54;10.93;;;8.98;;
20348;SDS011;10332;50.208;18.988;2022-10-15T10:01:25;10.63;;;7.70;;
20348;SDS011;10332;50.208;18.988;2022-10-15T10:06:47;9.38;;;7.15;;
20348;SDS011;10332;50.208;18.988;2022-10-15T10:09:20;9.90;;;8.00;;
20348;SDS011;10332;50.208;18.988;2022-10-15T10:11:58;11.05;;;7.93;;
20348;SDS011;10332;50.208;18.988;2022-10-15T10:14:52;10.15;;;8.18;;
20348;SDS011;10332;50.208;18.988;2022-10-15T10:17:51;15.70;;;8.85;;
20348;SDS011;10332;50.208;18.988;2022-10-15T10:20:23;9.57;;;7.93;;
20348;SDS011;10332;50.208;18.988;2022-10-15T10:22:54;11.57;;;8.02;;
20348;SDS011;10332;50.208;18.988;2022-10-15T10:27:53;9.82;;;6.50;;
20348;SDS011;10332;50.208;18.988;2022-10-15T10:33:31;11.63;;;7.93;;
20348;SDS011;10332;50.208;18.988;2022-10-15T10:36:18;10.65;;;7.68;;
20348;SDS011;10332;50.208;18.988;2022-10-15T10:38:55;9.65;;;8.05;;
20348;SDS011;10332;50.208;18.988;2022-10-15T10:44:31;15.85;;;9.50;;
20348;SDS011;10332;50.208;18.988;2022-10-15T10:49:38;8.82;;;7.07;;
20348;SDS011;10332;50.208;18.988;2022-10-15T10:52:23;11.82;;;7.72;;
20348;SDS011;10332;50.208;18.988;2022-10-15T10:55:01;9.27;;;7.60;;
20348;SDS011;10332;50.208;18.988;2022-10-15T10:57:48;11.48;;;7.30;;
20348;SDS011;10332;50.208;18.988;2022-10-15T11:00:41;10.68;;;7.72;;
20348;SDS011;10332;50.208;18.988;2022-10-15T11:05:54;8.90;;;7.55;;
20348;SDS011;10332;50.208;18.988;2022-10-15T11:09:03;8.38;;;6.45;;
20348;SDS011;10332;50.208;18.988;2022-10-15T11:27:21;9.30;;;7.13;;
20348;SDS011;10332;50.208;18.988;2022-10-15T11:57:44;11.55;;;7.18;;
20348;SDS011;10332;50.208;18.988;2022-10-15T12:00:29;11.18;;;7.43;;
20348;SDS011;10332;50.208;18.988;2022-10-15T12:03:14;11.77;;;7.15;;
20348;SDS011;10332;50.208;18.988;2022-10-15T12:05:49;9.52;;;6.85;;
20348;SDS011;10332;50.208;18.988;2022-10-15T12:08:27;12.40;;;7.30;;
20348;SDS011;10332;50.208;18.988;2022-10-15T12:13:52;8.80;;;7.15;;
20348;SDS011;10332;50.208;18.988;2022-10-15T12:19:47;11.18;;;7.22;;
20348;SDS011;10332;50.208;18.988;2022-10-15T12:22:34;9.80;;;6.70;;
20348;SDS011;10332;50.208;18.988;2022-10-15T12:30:34;10.70;;;6.75;;
20348;SDS011;10332;50.208;18.988;2022-10-15T12:33:18;8.73;;;6.32;;
20348;SDS011;10332;50.208;18.988;2022-10-15T12:35:53;10.73;;;7.43;;
20348;SDS011;10332;50.208;18.988;2022-10-15T12:41:08;10.43;;;7.43;;
20348;SDS011;10332;50.208;18.988;2022-10-15T12:43:40;12.05;;;8.75;;
20348;SDS011;10332;50.208;18.988;2022-10-15T12:46:13;12.48;;;7.55;;
20348;SDS011;10332;50.208;18.988;2022-10-15T12:48:42;11.02;;;7.40;;
20348;SDS011;10332;50.208;18.988;2022-10-15T12:53:49;9.38;;;6.85;;
20348;SDS011;10332;50.208;18.988;2022-10-15T12:56:21;10.27;;;7.60;;
20348;SDS011;10332;50.208;18.988;2022-10-15T12:58:52;9.27;;;6.82;;
20348;SDS011;10332;50.208;18.988;2022-10-15T13:08:48;8.85;;;7.68;;
20348;SDS011;10332;50.208;18.988;2022-10-15T13:17:00;8.80;;;6.15;;
20348;SDS011;10332;50.208;18.988;2022-10-15T13:19:45;8.48;;;6.18;;
20348;SDS011;10332;50.208;18.988;2022-10-15T13:22:27;8.25;;;6.30;;
20348;SDS011;10332;50.208;18.988;2022-10-15T13:24:57;7.93;;;6.10;;
20348;SDS011;10332;50.208;18.988;2022-10-15T13:27:29;7.70;;;6.13;;
20348;SDS011;10332;50.208;18.988;2022-10-15T13:30:06;9.75;;;6.30;;
20348;SDS011;10332;50.208;18.988;2022-10-15T13:32:46;9.20;;;6.28;;
20348;SDS011;10332;50.208;18.988;2022-10-15T13:35:19;8.20;;;6.65;;
20348;SDS011;10332;50.208;18.988;2022-10-15T13:38:05;8.23;;;6.13;;
20348;SDS011;10332;50.208;18.988;2022-10-15T13:40:46;9.13;;;6.15;;
20348;SDS011;10332;50.208;18.988;2022-10-15T13:43:25;8.90;;;6.38;;
20348;SDS011;10332;50.208;18.988;2022-10-15T13:45:54;7.13;;;6.28;;
20348;SDS011;10332;50.208;18.988;2022-10-15T13:48:28;8.07;;;6.70;;
20348;SDS011;10332;50.208;18.988;2022-10-15T13:50:59;9.18;;;6.28;;
20348;SDS011;10332;50.208;18.988;2022-10-15T13:53:34;9.82;;;6.63;;
20348;SDS011;10332;50.208;18.988;2022-10-15T13:58:56;9.98;;;6.78;;
20348;SDS011;10332;50.208;18.988;2022-10-15T14:01:28;9.90;;;6.68;;
20348;SDS011;10332;50.208;18.988;2022-10-15T14:03:59;10.75;;;7.05;;
20348;SDS011;10332;50.208;18.988;2022-10-15T14:06:30;12.50;;;7.47;;
20348;SDS011;10332;50.208;18.988;2022-10-15T14:09:10;11.55;;;7.40;;
20348;SDS011;10332;50.208;18.988;2022-10-15T14:11:52;10.45;;;7.90;;
20348;SDS011;10332;50.208;18.988;2022-10-15T14:17:09;10.25;;;7.55;;
20348;SDS011;10332;50.208;18.988;2022-10-15T14:19:52;11.43;;;7.80;;
20348;SDS011;10332;50.208;18.988;2022-10-15T14:22:47;13.25;;;7.25;;
20348;SDS011;10332;50.208;18.988;2022-10-15T14:25:16;10.32;;;7.63;;
20348;SDS011;10332;50.208;18.988;2022-10-15T14:27:50;10.10;;;6.88;;
20348;SDS011;10332;50.208;18.988;2022-10-15T14:30:36;11.50;;;7.50;;
20348;SDS011;10332;50.208;18.988;2022-10-15T14:33:26;10.50;;;8.10;;
20348;SDS011;10332;50.208;18.988;2022-10-15T14:42:01;9.18;;;6.75;;
20348;SDS011;10332;50.208;18.988;2022-10-15T14:44:51;11.80;;;7.03;;
20348;SDS011;10332;50.208;18.988;2022-10-15T14:47:21;10.70;;;7.80;;
20348;SDS011;10332;50.208;18.988;2022-10-15T14:49:54;11.45;;;8.77;;
20348;SDS011;10332;50.208;18.988;2022-10-15T14:52:26;11.23;;;7.53;;
20348;SDS011;10332;50.208;18.988;2022-10-15T14:55:03;11.57;;;7.55;;
20348;SDS011;10332;50.208;18.988;2022-10-15T14:57:39;10.52;;;7.55;;
20348;SDS011;10332;50.208;18.988;2022-10-15T15:00:15;10.88;;;7.40;;
20348;SDS011;10332;50.208;18.988;2022-10-15T15:03:01;12.27;;;8.00;;
20348;SDS011;10332;50.208;18.988;2022-10-15T15:05:42;12.30;;;7.55;;
20348;SDS011;10332;50.208;18.988;2022-10-15T15:08:12;13.60;;;8.48;;
20348;SDS011;10332;50.208;18.988;2022-10-15T15:10:41;15.48;;;8.63;;
20348;SDS011;10332;50.208;18.988;2022-10-15T15:13:11;11.48;;;8.05;;
20348;SDS011;10332;50.208;18.988;2022-10-15T15:15:46;13.55;;;8.68;;
20348;SDS011;10332;50.208;18.988;2022-10-15T15:18:13;13.23;;;8.73;;
20348;SDS011;10332;50.208;18.988;2022-10-15T15:20:41;11.43;;;7.30;;
20348;SDS011;10332;50.208;18.988;2022-10-15T15:23:16;11.77;;;7.13;;
20348;SDS011;10332;50.208;18.988;2022-10-15T15:25:49;9.50;;;7.30;;
20348;SDS011;10332;50.208;18.988;2022-10-15T15:28:19;10.18;;;7.47;;
20348;SDS011;10332;50.208;18.988;2022-10-15T15:30:54;8.93;;;6.70;;
20348;SDS011;10332;50.208;18.988;2022-10-15T15:33:31;10.02;;;7.22;;
20348;SDS011;10332;50.208;18.988;2022-10-15T15:38:34;10.05;;;7.25;;
20348;SDS011;10332;50.208;18.988;2022-10-15T15:43:40;10.43;;;7.50;;
20348;SDS011;10332;50.208;18.988;2022-10-15T15:46:08;14.90;;;9.25;;
20348;SDS011;10332;50.208;18.988;2022-10-15T15:48:36;11.70;;;8.45;;
20348;SDS011;10332;50.208;18.988;2022-10-15T15:51:05;13.32;;;9.48;;
20348;SDS011;10332;50.208;18.988;2022-10-15T15:53:46;13.00;;;8.43;;
20348;SDS011;10332;50.208;18.988;2022-10-15T15:56:14;15.40;;;9.82;;
20348;SDS011;10332;50.208;18.988;2022-10-15T15:58:41;16.95;;;9.70;;
20348;SDS011;10332;50.208;18.988;2022-10-15T16:01:09;13.50;;;9.23;;
20348;SDS011;10332;50.208;18.988;2022-10-15T16:03:36;11.48;;;7.72;;
20348;SDS011;10332;50.208;18.988;2022-10-15T16:06:04;11.60;;;7.80;;
20348;SDS011;10332;50.208;18.988;2022-10-15T16:08:33;11.88;;;8.15;;
20348;SDS011;10332;50.208;18.988;2022-10-15T16:11:02;10.32;;;7.40;;
20348;SDS011;10332;50.208;18.988;2022-10-15T16:13:31;11.38;;;7.38;;
20348;SDS011;10332;50.208;18.988;2022-10-15T16:16:00;11.68;;;8.05;;
20348;SDS011;10332;50.208;18.988;2022-10-15T16:18:27;10.07;;;7.40;;
20348;SDS011;10332;50.208;18.988;2022-10-15T16:20:54;14.00;;;9.52;;
20348;SDS011;10332;50.208;18.988;2022-10-15T16:23:22;14.13;;;8.05;;
20348;SDS011;10332;50.208;18.988;2022-10-15T16:25:49;12.68;;;8.05;;
20348;SDS011;10332;50.208;18.988;2022-10-15T16:28:17;12.93;;;8.35;;
20348;SDS011;10332;50.208;18.988;2022-10-15T16:30:45;11.60;;;8.00;;
20348;SDS011;10332;50.208;18.988;2022-10-15T16:33:13;11.50;;;7.97;;
20348;SDS011;10332;50.208;18.988;2022-10-15T16:35:40;13.60;;;8.95;;
20348;SDS011;10332;50.208;18.988;2022-10-15T16:38:08;10.73;;;7.90;;
20348;SDS011;10332;50.208;18.988;2022-10-15T16:40:35;14.57;;;8.60;;
20348;SDS011;10332;50.208;18.988;2022-10-15T16:43:04;12.65;;;8.55;;
20348;SDS011;10332;50.208;18.988;2022-10-15T16:45:31;13.02;;;8.93;;
20348;SDS011;10332;50.208;18.988;2022-10-15T16:47:59;12.40;;;8.93;;
20348;SDS011;10332;50.208;18.988;2022-10-15T16:50:26;14.50;;;8.90;;
20348;SDS011;10332;50.208;18.988;2022-10-15T16:52:53;15.13;;;8.70;;
20348;SDS011;10332;50.208;18.988;2022-10-15T16:55:20;15.00;;;9.20;;
20348;SDS011;10332;50.208;18.988;2022-10-15T16:57:48;14.43;;;9.23;;
20348;SDS011;10332;50.208;18.988;2022-10-15T17:00:15;15.02;;;10.70;;
20348;SDS011;10332;50.208;18.988;2022-10-15T17:02:42;14.45;;;10.60;;
20348;SDS011;10332;50.208;18.988;2022-10-15T17:05:09;16.15;;;10.32;;
20348;SDS011;10332;50.208;18.988;2022-10-15T17:07:38;15.82;;;10.80;;
20348;SDS011;10332;50.208;18.988;2022-10-15T17:10:06;20.25;;;12.98;;
20348;SDS011;10332;50.208;18.988;2022-10-15T17:12:39;17.98;;;11.38;;
20348;SDS011;10332;50.208;18.988;2022-10-15T17:15:06;18.38;;;11.68;;
20348;SDS011;10332;50.208;18.988;2022-10-15T17:17:34;19.33;;;11.32;;